sensor_id;sensor_type;location;lat;lon;timestamp;pressure;altitude;pressure_sealevel;temperature;humidity
10948;BME280;5526;42.070;24.752;2023-04-26T00:01:34;98009.50;;;13.61;100.00
10948;BME280;5526;42.070;24.752;2023-04-26T00:04:01;98010.31;;;13.61;100.00
10948;BME280;5526;42.070;24.752;2023-04-26T00:06:28;98011.38;;;13.60;100.00
10948;BME280;5526;42.070;24.752;2023-04-26T00:08:55;98012.44;;;13.59;100.00
10948;BME280;5526;42.070;24.752;2023-04-26T00:11:24;97997.25;;;13.65;100.00
10948;BME280;5526;42.070;24.752;2023-04-26T00:13:51;98002.56;;;13.65;100.00
10948;BME280;5526;42.070;24.752;2023-04-26T00:16:18;97992.28;;;13.63;100.00
10948;BME280;5526;42.070;24.752;2023-04-26T00:18:45;97992.88;;;13.60;100.00
10948;BME280;5526;42.070;24.752;2023-04-26T00:21:13;97990.81;;;13.57;100.00
10948;BME280;5526;42.070;24.752;2023-04-26T00:23:40;97987.97;;;13.54;100.00
10948;BME280;5526;42.070;24.752;2023-04-26T00:26:07;97979.88;;;13.50;100.00
10948;BME280;5526;42.070;24.752;2023-04-26T00:28:36;97988.88;;;13.49;100.00
10948;BME280;5526;42.070;24.752;2023-04-26T00:31:03;97977.13;;;13.42;100.00
10948;BME280;5526;42.070;24.752;2023-04-26T00:33:30;97971.56;;;13.43;100.00
10948;BME280;5526;42.070;24.752;2023-04-26T00:35:57;97968.53;;;13.36;100.00
10948;BME280;5526;42.070;24.752;2023-04-26T00:38:24;97964.53;;;13.39;100.00
10948;BME280;5526;42.070;24.752;2023-04-26T00:40:51;97955.13;;;13.33;100.00
10948;BME280;5526;42.070;24.752;2023-04-26T00:43:18;97962.59;;;13.31;100.00
10948;BME280;5526;42.070;24.752;2023-04-26T00:45:47;97940.47;;;13.27;100.00
10948;BME280;5526;42.070;24.752;2023-04-26T00:48:14;97941.81;;;13.24;100.00
10948;BME280;5526;42.070;24.752;2023-04-26T00:50:42;97944.56;;;13.19;100.00
10948;BME280;5526;42.070;24.752;2023-04-26T00:53:10;97945.38;;;13.20;100.00
10948;BME280;5526;42.070;24.752;2023-04-26T00:55:39;97931.38;;;13.19;100.00
10948;BME280;5526;42.070;24.752;2023-04-26T00:58:07;97936.47;;;13.16;100.00
10948;BME280;5526;42.070;24.752;2023-04-26T01:00:34;97932.94;;;13.20;100.00
10948;BME280;5526;42.070;24.752;2023-04-26T01:03:03;97931.38;;;13.19;100.00
10948;BME280;5526;42.070;24.752;2023-04-26T01:05:31;97928.13;;;13.22;100.00
10948;BME280;5526;42.070;24.752;2023-04-26T01:07:58;97927.56;;;13.12;100.00
10948;BME280;5526;42.070;24.752;2023-04-26T01:10:27;97920.69;;;12.97;100.00
10948;BME280;5526;42.070;24.752;2023-04-26T01:12:54;97929.59;;;13.15;100.00
10948;BME280;5526;42.070;24.752;2023-04-26T01:15:22;97917.69;;;13.04;100.00
10948;BME280;5526;42.070;24.752;2023-04-26T01:17:49;97925.22;;;13.10;100.00
10948;BME280;5526;42.070;24.752;2023-04-26T01:20:18;97923.25;;;13.16;100.00
10948;BME280;5526;42.070;24.752;2023-04-26T01:22:46;97928.44;;;13.21;100.00
10948;BME280;5526;42.070;24.752;2023-04-26T01:25:15;97928.44;;;13.21;100.00
10948;BME280;5526;42.070;24.752;2023-04-26T01:27:42;97928.72;;;13.19;100.00
10948;BME280;5526;42.070;24.752;2023-04-26T01:30:09;97933.84;;;13.16;100.00
10948;BME280;5526;42.070;24.752;2023-04-26T01:32:37;97927.38;;;13.08;100.00
10948;BME280;5526;42.070;24.752;2023-04-26T01:35:04;97928.25;;;13.04;100.00
10948;BME280;5526;42.070;24.752;2023-04-26T01:37:32;97918.53;;;12.85;100.00
10948;BME280;5526;42.070;24.752;2023-04-26T01:40:00;97922.66;;;12.91;100.00
10948;BME280;5526;42.070;24.752;2023-04-26T01:42:30;97916.09;;;12.89;100.00
10948;BME280;5526;42.070;24.752;2023-04-26T01:44:58;97906.22;;;12.94;100.00
10948;BME280;5526;42.070;24.752;2023-04-26T01:47:25;97902.91;;;13.02;100.00
10948;BME280;5526;42.070;24.752;2023-04-26T01:49:52;97896.91;;;12.97;100.00
10948;BME280;5526;42.070;24.752;2023-04-26T01:52:19;97900.47;;;13.06;100.00
10948;BME280;5526;42.070;24.752;2023-04-26T01:54:47;97901.25;;;13.07;100.00
10948;BME280;5526;42.070;24.752;2023-04-26T01:57:15;97907.72;;;13.01;100.00
10948;BME280;5526;42.070;24.752;2023-04-26T01:59:42;97905.94;;;12.82;100.00
10948;BME280;5526;42.070;24.752;2023-04-26T02:02:09;97911.69;;;12.57;100.00
10948;BME280;5526;42.070;24.752;2023-04-26T02:04:36;97913.94;;;12.50;100.00
10948;BME280;5526;42.070;24.752;2023-04-26T02:07:03;97910.78;;;12.35;100.00
10948;BME280;5526;42.070;24.752;2023-04-26T02:09:31;97914.44;;;12.20;100.00
10948;BME280;5526;42.070;24.752;2023-04-26T02:11:58;97915.16;;;12.26;100.00
10948;BME280;5526;42.070;24.752;2023-04-26T02:14:26;97919.94;;;12.24;100.00
10948;BME280;5526;42.070;24.752;2023-04-26T02:16:53;97919.44;;;12.22;100.00
10948;BME280;5526;42.070;24.752;2023-04-26T02:19:21;97917.78;;;12.26;100.00
10948;BME280;5526;42.070;24.752;2023-04-26T02:21:53;97918.09;;;12.38;100.00
10948;BME280;5526;42.070;24.752;2023-04-26T02:24:21;97921.72;;;12.42;100.00
10948;BME280;5526;42.070;24.752;2023-04-26T02:26:49;97924.00;;;12.48;100.00
10948;BME280;5526;42.070;24.752;2023-04-26T02:29:16;97928.69;;;12.51;100.00
10948;BME280;5526;42.070;24.752;2023-04-26T02:31:45;97927.03;;;12.55;100.00
10948;BME280;5526;42.070;24.752;2023-04-26T02:34:16;97928.91;;;12.55;100.00
10948;BME280;5526;42.070;24.752;2023-04-26T02:36:43;97926.84;;;12.52;100.00
10948;BME280;5526;42.070;24.752;2023-04-26T02:39:10;97926.84;;;12.52;100.00
10948;BME280;5526;42.070;24.752;2023-04-26T02:41:37;97925.38;;;12.59;100.00
10948;BME280;5526;42.070;24.752;2023-04-26T02:44:05;97934.25;;;12.63;100.00
10948;BME280;5526;42.070;24.752;2023-04-26T02:46:32;97932.72;;;12.62;100.00
10948;BME280;5526;42.070;24.752;2023-04-26T02:49:01;97931.44;;;12.60;100.00
10948;BME280;5526;42.070;24.752;2023-04-26T02:51:28;97943.84;;;12.59;100.00
10948;BME280;5526;42.070;24.752;2023-04-26T02:53:55;97948.53;;;12.49;100.00
10948;BME280;5526;42.070;24.752;2023-04-26T02:56:22;97951.84;;;12.41;100.00
10948;BME280;5526;42.070;24.752;2023-04-26T02:58:49;97953.38;;;12.42;100.00
10948;BME280;5526;42.070;24.752;2023-04-26T03:01:16;97954.06;;;12.34;100.00
10948;BME280;5526;42.070;24.752;2023-04-26T03:03:43;97943.22;;;12.35;100.00
10948;BME280;5526;42.070;24.752;2023-04-26T03:06:12;97946.53;;;12.27;100.00
10948;BME280;5526;42.070;24.752;2023-04-26T03:08:39;97944.16;;;12.26;100.00
10948;BME280;5526;42.070;24.752;2023-04-26T03:11:06;97942.44;;;12.35;100.00
10948;BME280;5526;42.070;24.752;2023-04-26T03:13:33;97935.25;;;12.40;100.00
10948;BME280;5526;42.070;24.752;2023-04-26T03:16:00;97929.06;;;12.45;100.00
10948;BME280;5526;42.070;24.752;2023-04-26T03:18:27;97920.00;;;12.51;100.00
10948;BME280;5526;42.070;24.752;2023-04-26T03:20:54;97917.84;;;12.53;100.00
10948;BME280;5526;42.070;24.752;2023-04-26T03:23:22;97922.44;;;12.61;100.00
10948;BME280;5526;42.070;24.752;2023-04-26T03:25:50;97921.06;;;12.63;100.00
10948;BME280;5526;42.070;24.752;2023-04-26T03:28:17;97921.28;;;12.67;100.00
10948;BME280;5526;42.070;24.752;2023-04-26T03:30:44;97921.00;;;12.68;100.00
10948;BME280;5526;42.070;24.752;2023-04-26T03:33:11;97928.91;;;12.68;100.00
10948;BME280;5526;42.070;24.752;2023-04-26T03:35:39;97931.28;;;12.70;100.00
10948;BME280;5526;42.070;24.752;2023-04-26T03:38:06;97938.41;;;12.69;100.00
10948;BME280;5526;42.070;24.752;2023-04-26T03:40:34;97943.84;;;12.73;100.00
10948;BME280;5526;42.070;24.752;2023-04-26T03:43:01;97945.53;;;12.69;100.00
10948;BME280;5526;42.070;24.752;2023-04-26T03:45:29;97946.13;;;12.66;100.00
10948;BME280;5526;42.070;24.752;2023-04-26T03:47:56;97949.34;;;12.63;100.00
10948;BME280;5526;42.070;24.752;2023-04-26T03:50:23;97952.75;;;12.63;100.00
10948;BME280;5526;42.070;24.752;2023-04-26T03:52:50;97960.97;;;12.62;100.00
10948;BME280;5526;42.070;24.752;2023-04-26T03:55:17;97963.13;;;12.60;100.00
10948;BME280;5526;42.070;24.752;2023-04-26T03:57:45;97960.47;;;12.60;100.00
10948;BME280;5526;42.070;24.752;2023-04-26T04:00:13;97957.53;;;12.61;100.00
10948;BME280;5526;42.070;24.752;2023-04-26T04:02:40;97955.69;;;12.62;100.00
10948;BME280;5526;42.070;24.752;2023-04-26T04:05:07;97957.72;;;12.65;100.00
10948;BME280;5526;42.070;24.752;2023-04-26T04:07:35;97956.38;;;12.67;100.00
10948;BME280;5526;42.070;24.752;2023-04-26T04:10:02;97956.59;;;12.71;100.00
10948;BME280;5526;42.070;24.752;2023-04-26T04:12:29;97951.88;;;12.81;100.00
10948;BME280;5526;42.070;24.752;2023-04-26T04:14:58;97954.66;;;12.90;100.00
10948;BME280;5526;42.070;24.752;2023-04-26T04:17:25;97951.41;;;12.93;100.00
10948;BME280;5526;42.070;24.752;2023-04-26T04:19:52;97959.66;;;13.05;100.00
10948;BME280;5526;42.070;24.752;2023-04-26T04:22:19;97961.63;;;13.13;100.00
10948;BME280;5526;42.070;24.752;2023-04-26T04:24:46;97960.94;;;13.21;100.00
10948;BME280;5526;42.070;24.752;2023-04-26T04:27:13;97959.94;;;13.31;100.00
10948;BME280;5526;42.070;24.752;2023-04-26T04:29:40;97963.16;;;13.41;100.00
10948;BME280;5526;42.070;24.752;2023-04-26T04:32:09;97955.00;;;13.51;100.00
10948;BME280;5526;42.070;24.752;2023-04-26T04:34:38;97959.78;;;13.63;100.00
10948;BME280;5526;42.070;24.752;2023-04-26T04:37:06;97957.88;;;13.77;100.00
10948;BME280;5526;42.070;24.752;2023-04-26T04:39:33;97959.56;;;13.95;100.00
10948;BME280;5526;42.070;24.752;2023-04-26T04:42:00;97950.34;;;14.28;100.00
10948;BME280;5526;42.070;24.752;2023-04-26T04:44:27;97967.28;;;14.49;100.00
10948;BME280;5526;42.070;24.752;2023-04-26T04:46:55;97961.25;;;14.57;100.00
10948;BME280;5526;42.070;24.752;2023-04-26T04:49:24;97962.72;;;14.71;100.00
10948;BME280;5526;42.070;24.752;2023-04-26T04:51:51;97952.28;;;15.05;98.96
10948;BME280;5526;42.070;24.752;2023-04-26T04:54:18;97958.53;;;15.09;96.31
10948;BME280;5526;42.070;24.752;2023-04-26T04:56:45;97960.72;;;15.16;95.36
10948;BME280;5526;42.070;24.752;2023-04-26T04:59:13;97966.56;;;15.35;94.63
10948;BME280;5526;42.070;24.752;2023-04-26T05:01:40;97970.03;;;15.52;92.34
10948;BME280;5526;42.070;24.752;2023-04-26T05:04:07;97976.13;;;15.61;91.98
10948;BME280;5526;42.070;24.752;2023-04-26T05:06:35;97975.03;;;15.45;92.07
10948;BME280;5526;42.070;24.752;2023-04-26T05:09:02;97972.22;;;15.42;93.44
10948;BME280;5526;42.070;24.752;2023-04-26T05:11:30;97975.50;;;15.56;92.35
10948;BME280;5526;42.070;24.752;2023-04-26T05:13:57;97979.84;;;15.43;91.92
10948;BME280;5526;42.070;24.752;2023-04-26T05:16:24;97973.59;;;15.39;91.70
10948;BME280;5526;42.070;24.752;2023-04-26T05:18:52;97970.13;;;15.30;91.91
10948;BME280;5526;42.070;24.752;2023-04-26T05:21:20;97971.44;;;15.41;91.48
10948;BME280;5526;42.070;24.752;2023-04-26T05:23:48;97966.91;;;15.50;90.57
10948;BME280;5526;42.070;24.752;2023-04-26T05:26:16;97970.22;;;15.81;90.30
10948;BME280;5526;42.070;24.752;2023-04-26T05:28:43;97970.03;;;15.52;89.87
10948;BME280;5526;42.070;24.752;2023-04-26T05:31:10;97959.00;;;15.67;89.70
10948;BME280;5526;42.070;24.752;2023-04-26T05:33:37;97968.53;;;15.94;89.52
10948;BME280;5526;42.070;24.752;2023-04-26T05:36:06;97961.16;;;15.57;90.00
10948;BME280;5526;42.070;24.752;2023-04-26T05:38:34;97972.38;;;15.54;91.14
10948;BME280;5526;42.070;24.752;2023-04-26T05:41:03;97968.19;;;15.78;90.07
10948;BME280;5526;42.070;24.752;2023-04-26T05:43:31;97967.78;;;15.29;89.09
10948;BME280;5526;42.070;24.752;2023-04-26T05:45:58;97966.91;;;15.50;89.20
10948;BME280;5526;42.070;24.752;2023-04-26T05:48:26;97968.94;;;15.53;89.91
10948;BME280;5526;42.070;24.752;2023-04-26T05:50:54;97968.25;;;15.31;90.44
10948;BME280;5526;42.070;24.752;2023-04-26T05:53:21;97969.38;;;15.38;89.75
10948;BME280;5526;42.070;24.752;2023-04-26T05:55:48;97963.38;;;15.80;89.35
10948;BME280;5526;42.070;24.752;2023-04-26T05:58:17;97971.63;;;16.13;89.11
10948;BME280;5526;42.070;24.752;2023-04-26T06:00:44;97965.84;;;16.45;87.18
10948;BME280;5526;42.070;24.752;2023-04-26T06:03:11;97959.28;;;16.42;86.49
10948;BME280;5526;42.070;24.752;2023-04-26T06:05:38;97954.13;;;16.29;86.13
10948;BME280;5526;42.070;24.752;2023-04-26T06:08:05;97950.34;;;16.47;85.77
10948;BME280;5526;42.070;24.752;2023-04-26T06:10:34;97966.97;;;16.81;84.15
10948;BME280;5526;42.070;24.752;2023-04-26T06:13:01;97965.69;;;16.96;84.95
10948;BME280;5526;42.070;24.752;2023-04-26T06:15:30;97971.31;;;16.86;85.09
10948;BME280;5526;42.070;24.752;2023-04-26T06:17:57;97969.81;;;17.14;82.55
10948;BME280;5526;42.070;24.752;2023-04-26T06:20:24;97973.16;;;16.94;83.05
10948;BME280;5526;42.070;24.752;2023-04-26T06:22:52;97969.41;;;17.33;82.71
10948;BME280;5526;42.070;24.752;2023-04-26T06:25:19;97973.38;;;17.76;80.90
10948;BME280;5526;42.070;24.752;2023-04-26T06:27:46;97975.00;;;17.69;81.86
10948;BME280;5526;42.070;24.752;2023-04-26T06:30:13;97969.44;;;18.03;80.39
10948;BME280;5526;42.070;24.752;2023-04-26T06:32:42;97959.09;;;17.81;81.35
10948;BME280;5526;42.070;24.752;2023-04-26T06:35:09;97971.22;;;17.70;82.81
10948;BME280;5526;42.070;24.752;2023-04-26T06:37:36;97971.38;;;17.73;82.93
10948;BME280;5526;42.070;24.752;2023-04-26T06:40:05;97967.75;;;17.20;81.43
10948;BME280;5526;42.070;24.752;2023-04-26T06:42:32;97967.53;;;16.95;82.16
10948;BME280;5526;42.070;24.752;2023-04-26T06:44:59;97961.81;;;16.76;83.02
10948;BME280;5526;42.070;24.752;2023-04-26T06:47:26;97971.91;;;17.00;82.68
10948;BME280;5526;42.070;24.752;2023-04-26T06:49:55;97974.47;;;17.17;82.33
10948;BME280;5526;42.070;24.752;2023-04-26T06:52:22;97983.75;;;16.73;84.20
10948;BME280;5526;42.070;24.752;2023-04-26T06:54:49;97979.69;;;16.67;83.68
10948;BME280;5526;42.070;24.752;2023-04-26T06:57:16;97975.16;;;16.68;82.91
10948;BME280;5526;42.070;24.752;2023-04-26T06:59:43;97982.84;;;16.98;82.33
10948;BME280;5526;42.070;24.752;2023-04-26T07:02:10;97981.31;;;16.98;82.26
10948;BME280;5526;42.070;24.752;2023-04-26T07:04:37;97976.81;;;17.19;81.98
10948;BME280;5526;42.070;24.752;2023-04-26T07:07:06;97974.97;;;17.11;80.79
10948;BME280;5526;42.070;24.752;2023-04-26T07:09:33;97986.63;;;16.98;82.75
10948;BME280;5526;42.070;24.752;2023-04-26T07:12:00;97980.69;;;17.01;84.01
10948;BME280;5526;42.070;24.752;2023-04-26T07:14:27;97986.41;;;17.40;83.92
10948;BME280;5526;42.070;24.752;2023-04-26T07:16:54;97972.69;;;17.88;82.38
10948;BME280;5526;42.070;24.752;2023-04-26T07:19:21;97985.34;;;18.23;81.63
10948;BME280;5526;42.070;24.752;2023-04-26T07:21:48;97978.91;;;17.92;81.97
10948;BME280;5526;42.070;24.752;2023-04-26T07:24:17;97983.25;;;17.76;83.91
10948;BME280;5526;42.070;24.752;2023-04-26T07:26:44;97989.50;;;17.51;83.36
10948;BME280;5526;42.070;24.752;2023-04-26T07:29:11;97980.72;;;17.79;83.28
10948;BME280;5526;42.070;24.752;2023-04-26T07:31:38;97988.94;;;17.66;83.40
10948;BME280;5526;42.070;24.752;2023-04-26T07:34:06;97988.00;;;17.41;83.89
10948;BME280;5526;42.070;24.752;2023-04-26T07:36:33;97981.38;;;17.18;82.97
10948;BME280;5526;42.070;24.752;2023-04-26T07:39:00;97986.19;;;17.25;82.43
10948;BME280;5526;42.070;24.752;2023-04-26T07:41:29;97983.47;;;17.42;81.34
10948;BME280;5526;42.070;24.752;2023-04-26T07:43:56;97989.94;;;17.82;80.44
10948;BME280;5526;42.070;24.752;2023-04-26T07:46:23;97991.81;;;18.02;77.51
10948;BME280;5526;42.070;24.752;2023-04-26T07:48:50;97990.72;;;17.82;76.37
10948;BME280;5526;42.070;24.752;2023-04-26T07:51:18;97986.25;;;17.95;76.06
10948;BME280;5526;42.070;24.752;2023-04-26T07:53:45;98000.44;;;17.78;77.46
10948;BME280;5526;42.070;24.752;2023-04-26T07:56:12;97992.63;;;17.53;79.09
10948;BME280;5526;42.070;24.752;2023-04-26T07:58:41;97991.41;;;17.71;76.87
10948;BME280;5526;42.070;24.752;2023-04-26T08:01:08;97996.00;;;17.91;77.74
10948;BME280;5526;42.070;24.752;2023-04-26T08:03:36;97988.56;;;17.76;77.91
10948;BME280;5526;42.070;24.752;2023-04-26T08:06:03;97983.69;;;17.57;78.05
10948;BME280;5526;42.070;24.752;2023-04-26T08:08:31;97987.84;;;17.38;79.39
10948;BME280;5526;42.070;24.752;2023-04-26T08:10:58;97989.38;;;17.47;79.97
10948;BME280;5526;42.070;24.752;2023-04-26T08:13:25;97985.31;;;17.03;80.27
10948;BME280;5526;42.070;24.752;2023-04-26T08:15:53;97974.97;;;17.11;80.66
10948;BME280;5526;42.070;24.752;2023-04-26T08:18:20;97981.78;;;17.29;79.11
10948;BME280;5526;42.070;24.752;2023-04-26T08:20:47;97984.13;;;17.30;78.13
10948;BME280;5526;42.070;24.752;2023-04-26T08:23:14;97983.16;;;17.35;76.45
10948;BME280;5526;42.070;24.752;2023-04-26T08:25:44;97979.34;;;17.53;74.85
10948;BME280;5526;42.070;24.752;2023-04-26T08:28:11;97987.72;;;17.34;73.73
10948;BME280;5526;42.070;24.752;2023-04-26T08:30:39;97976.44;;;17.87;70.48
10948;BME280;5526;42.070;24.752;2023-04-26T08:33:08;97974.47;;;17.55;72.98
10948;BME280;5526;42.070;24.752;2023-04-26T08:35:35;97977.00;;;17.14;75.03
10948;BME280;5526;42.070;24.752;2023-04-26T08:38:02;97977.41;;;16.95;75.86
10948;BME280;5526;42.070;24.752;2023-04-26T08:40:29;97976.97;;;17.22;75.38
10948;BME280;5526;42.070;24.752;2023-04-26T08:42:57;97977.19;;;17.38;73.71
10948;BME280;5526;42.070;24.752;2023-04-26T08:45:24;97984.50;;;17.49;74.74
10948;BME280;5526;42.070;24.752;2023-04-26T08:47:52;97985.28;;;17.79;66.92
10948;BME280;5526;42.070;24.752;2023-04-26T08:50:24;97971.97;;;17.79;66.19
10948;BME280;5526;42.070;24.752;2023-04-26T08:52:52;97972.94;;;17.74;64.68
10948;BME280;5526;42.070;24.752;2023-04-26T08:55:19;97972.78;;;17.71;60.33
10948;BME280;5526;42.070;24.752;2023-04-26T08:57:47;97961.38;;;17.91;58.75
10948;BME280;5526;42.070;24.752;2023-04-26T09:00:16;97964.09;;;18.03;58.51
10948;BME280;5526;42.070;24.752;2023-04-26T09:02:46;97959.91;;;18.14;57.28
10948;BME280;5526;42.070;24.752;2023-04-26T09:05:13;97961.28;;;17.99;56.40
10948;BME280;5526;42.070;24.752;2023-04-26T09:07:43;97953.44;;;18.03;53.27
10948;BME280;5526;42.070;24.752;2023-04-26T09:10:12;97962.25;;;18.15;54.43
10948;BME280;5526;42.070;24.752;2023-04-26T09:12:39;97958.03;;;18.14;54.51
10948;BME280;5526;42.070;24.752;2023-04-26T09:15:07;97949.75;;;18.28;53.71
10948;BME280;5526;42.070;24.752;2023-04-26T09:17:36;97951.38;;;18.41;53.63
10948;BME280;5526;42.070;24.752;2023-04-26T09:20:18;97948.09;;;18.68;53.91
10948;BME280;5526;42.070;24.752;2023-04-26T09:22:47;97949.81;;;19.68;52.10
10948;BME280;5526;42.070;24.752;2023-04-26T09:25:18;97945.28;;;19.09;53.37
10948;BME280;5526;42.070;24.752;2023-04-26T09:27:45;97948.44;;;18.78;54.93
10948;BME280;5526;42.070;24.752;2023-04-26T09:30:14;97948.44;;;18.78;54.75
10948;BME280;5526;42.070;24.752;2023-04-26T09:32:46;97942.81;;;19.91;51.85
10948;BME280;5526;42.070;24.752;2023-04-26T09:35:24;97943.09;;;19.74;51.28
10948;BME280;5526;42.070;24.752;2023-04-26T09:37:55;97938.00;;;19.69;51.11
10948;BME280;5526;42.070;24.752;2023-04-26T09:40:25;97937.19;;;20.36;49.19
10948;BME280;5526;42.070;24.752;2023-04-26T09:42:59;97934.13;;;19.43;51.75
10948;BME280;5526;42.070;24.752;2023-04-26T09:45:28;97935.81;;;19.11;53.68
10948;BME280;5526;42.070;24.752;2023-04-26T09:48:12;97937.06;;;19.26;50.93
10948;BME280;5526;42.070;24.752;2023-04-26T09:50:41;97938.94;;;19.49;51.10
10948;BME280;5526;42.070;24.752;2023-04-26T09:53:10;97939.25;;;19.00;50.41
10948;BME280;5526;42.070;24.752;2023-04-26T09:55:38;97936.56;;;18.76;48.33
10948;BME280;5526;42.070;24.752;2023-04-26T09:58:09;97938.59;;;19.15;48.41
10948;BME280;5526;42.070;24.752;2023-04-26T10:00:37;97934.06;;;19.27;48.29
10948;BME280;5526;42.070;24.752;2023-04-26T10:03:06;97929.59;;;19.43;48.11
10948;BME280;5526;42.070;24.752;2023-04-26T10:05:35;97935.63;;;19.28;49.15
10948;BME280;5526;42.070;24.752;2023-04-26T10:08:02;97928.63;;;19.24;49.25
10948;BME280;5526;42.070;24.752;2023-04-26T10:10:33;97930.25;;;19.16;48.47
10948;BME280;5526;42.070;24.752;2023-04-26T10:13:00;97929.69;;;19.23;49.23
10948;BME280;5526;42.070;24.752;2023-04-26T10:15:28;97923.72;;;19.38;50.12
10948;BME280;5526;42.070;24.752;2023-04-26T10:17:55;97925.09;;;19.59;50.62
10948;BME280;5526;42.070;24.752;2023-04-26T10:20:25;97926.03;;;19.51;49.92
10948;BME280;5526;42.070;24.752;2023-04-26T10:22:55;97931.81;;;19.53;49.57
10948;BME280;5526;42.070;24.752;2023-04-26T10:25:35;97913.81;;;19.14;49.62
10948;BME280;5526;42.070;24.752;2023-04-26T10:28:03;97919.72;;;19.32;49.51
10948;BME280;5526;42.070;24.752;2023-04-26T10:30:31;97919.91;;;19.39;49.90
10948;BME280;5526;42.070;24.752;2023-04-26T10:33:15;97930.38;;;18.96;50.88
10948;BME280;5526;42.070;24.752;2023-04-26T10:36:01;97919.69;;;18.96;52.83
10948;BME280;5526;42.070;24.752;2023-04-26T10:38:28;97920.25;;;18.89;52.87
10948;BME280;5526;42.070;24.752;2023-04-26T10:41:26;97899.81;;;18.69;52.31
10948;BME280;5526;42.070;24.752;2023-04-26T10:43:54;97920.16;;;18.74;52.36
10948;BME280;5526;42.070;24.752;2023-04-26T10:46:37;97918.81;;;18.92;52.13
10948;BME280;5526;42.070;24.752;2023-04-26T10:49:15;97916.72;;;19.33;52.57
10948;BME280;5526;42.070;24.752;2023-04-26T10:52:09;97917.66;;;19.65;52.04
10948;BME280;5526;42.070;24.752;2023-04-26T10:54:53;97913.53;;;19.67;51.54
10948;BME280;5526;42.070;24.752;2023-04-26T10:57:22;97917.78;;;19.68;51.33
10948;BME280;5526;42.070;24.752;2023-04-26T11:03:04;97912.03;;;19.42;51.85
10948;BME280;5526;42.070;24.752;2023-04-26T11:05:35;97909.03;;;19.44;51.47
10948;BME280;5526;42.070;24.752;2023-04-26T11:08:06;97912.94;;;19.34;50.21
10948;BME280;5526;42.070;24.752;2023-04-26T11:10:36;97912.56;;;18.64;50.49
10948;BME280;5526;42.070;24.752;2023-04-26T11:13:06;97912.38;;;18.69;51.11
10948;BME280;5526;42.070;24.752;2023-04-26T11:15:33;97911.81;;;18.75;51.04
10948;BME280;5526;42.070;24.752;2023-04-26T11:18:01;97905.72;;;18.99;51.60
10948;BME280;5526;42.070;24.752;2023-04-26T11:20:29;97909.59;;;19.01;50.77
10948;BME280;5526;42.070;24.752;2023-04-26T11:22:57;97922.59;;;18.79;51.55
10948;BME280;5526;42.070;24.752;2023-04-26T11:25:25;97912.75;;;18.35;51.43
10948;BME280;5526;42.070;24.752;2023-04-26T11:27:58;97915.84;;;18.37;53.24
10948;BME280;5526;42.070;24.752;2023-04-26T11:30:29;97918.03;;;18.55;53.66
10948;BME280;5526;42.070;24.752;2023-04-26T11:32:57;97917.63;;;18.45;52.98
10948;BME280;5526;42.070;24.752;2023-04-26T11:35:24;97917.31;;;18.46;53.47
10948;BME280;5526;42.070;24.752;2023-04-26T11:37:52;97916.56;;;18.46;53.28
10948;BME280;5526;42.070;24.752;2023-04-26T11:40:19;97916.56;;;18.58;53.58
10948;BME280;5526;42.070;24.752;2023-04-26T11:42:46;97925.56;;;18.65;53.46
10948;BME280;5526;42.070;24.752;2023-04-26T11:45:16;97919.88;;;18.43;55.02
10948;BME280;5526;42.070;24.752;2023-04-26T11:47:45;97919.50;;;18.77;54.41
10948;BME280;5526;42.070;24.752;2023-04-26T11:50:13;97915.94;;;18.85;53.28
10948;BME280;5526;42.070;24.752;2023-04-26T11:52:41;97922.34;;;18.72;53.57
10948;BME280;5526;42.070;24.752;2023-04-26T11:55:08;97917.47;;;18.74;52.78
10948;BME280;5526;42.070;24.752;2023-04-26T11:57:36;97923.44;;;18.26;53.41
10948;BME280;5526;42.070;24.752;2023-04-26T12:00:10;97903.34;;;18.17;53.98
10948;BME280;5526;42.070;24.752;2023-04-26T12:02:48;97931.28;;;19.36;50.75
10948;BME280;5526;42.070;24.752;2023-04-26T12:05:23;97931.78;;;18.69;53.63
10948;BME280;5526;42.070;24.752;2023-04-26T12:07:52;97933.25;;;18.79;54.29
10948;BME280;5526;42.070;24.752;2023-04-26T12:10:24;97932.81;;;18.65;55.46
10948;BME280;5526;42.070;24.752;2023-04-26T12:12:53;97919.34;;;18.61;55.29
10948;BME280;5526;42.070;24.752;2023-04-26T12:15:27;97938.38;;;18.96;54.50
10948;BME280;5526;42.070;24.752;2023-04-26T12:17:58;97951.38;;;18.41;52.89
10948;BME280;5526;42.070;24.752;2023-04-26T12:20:30;97931.75;;;18.25;53.89
10948;BME280;5526;42.070;24.752;2023-04-26T12:23:05;97921.91;;;18.58;53.10
10948;BME280;5526;42.070;24.752;2023-04-26T12:25:33;97926.38;;;18.78;52.98
10948;BME280;5526;42.070;24.752;2023-04-26T12:30:29;97929.84;;;19.02;52.21
10948;BME280;5526;42.070;24.752;2023-04-26T12:32:57;97923.84;;;19.29;51.36
10948;BME280;5526;42.070;24.752;2023-04-26T12:35:25;97924.59;;;19.30;50.55
10948;BME280;5526;42.070;24.752;2023-04-26T12:37:52;97922.06;;;19.33;49.65
10948;BME280;5526;42.070;24.752;2023-04-26T12:40:22;97919.38;;;19.09;49.76
10948;BME280;5526;42.070;24.752;2023-04-26T12:42:49;97918.38;;;19.02;49.48
10948;BME280;5526;42.070;24.752;2023-04-26T12:45:17;97924.03;;;19.00;49.25
10948;BME280;5526;42.070;24.752;2023-04-26T12:47:45;97925.22;;;18.55;50.77
10948;BME280;5526;42.070;24.752;2023-04-26T12:50:14;97925.91;;;18.64;51.99
10948;BME280;5526;42.070;24.752;2023-04-26T12:52:43;97919.63;;;18.36;51.60
10948;BME280;5526;42.070;24.752;2023-04-26T12:55:11;97922.44;;;18.51;50.98
10948;BME280;5526;42.070;24.752;2023-04-26T12:57:40;97923.78;;;18.57;51.58
10948;BME280;5526;42.070;24.752;2023-04-26T13:00:10;97927.13;;;18.66;51.61
10948;BME280;5526;42.070;24.752;2023-04-26T13:02:37;97920.47;;;18.28;52.81
10948;BME280;5526;42.070;24.752;2023-04-26T13:05:05;97924.09;;;18.44;52.64
10948;BME280;5526;42.070;24.752;2023-04-26T13:07:36;97934.09;;;18.47;52.73
10948;BME280;5526;42.070;24.752;2023-04-26T13:10:04;97927.03;;;19.35;50.75